sensor_id;sensor_type;location;lat;lon;timestamp;P1;durP1;ratioP1;P2;durP2;ratioP2
23716;SDS011;22094;52.130;5.598;2023-09-19T00:01:32;12.40;;;4.07;;
23716;SDS011;22094;52.130;5.598;2023-09-19T00:03:57;12.80;;;4.50;;
23716;SDS011;22094;52.130;5.598;2023-09-19T00:06:23;17.17;;;4.50;;
23716;SDS011;22094;52.130;5.598;2023-09-19T00:08:51;14.32;;;4.65;;
23716;SDS011;22094;52.130;5.598;2023-09-19T00:11:17;17.23;;;4.65;;
23716;SDS011;22094;52.130;5.598;2023-09-19T00:13:42;16.70;;;5.03;;
23716;SDS011;22094;52.130;5.598;2023-09-19T00:16:08;14.85;;;4.70;;
23716;SDS011;22094;52.130;5.598;2023-09-19T00:18:36;13.95;;;4.38;;
23716;SDS011;22094;52.130;5.598;2023-09-19T00:21:03;15.20;;;4.82;;
23716;SDS011;22094;52.130;5.598;2023-09-19T00:23:30;15.57;;;5.10;;
23716;SDS011;22094;52.130;5.598;2023-09-19T00:26:00;14.18;;;5.03;;
23716;SDS011;22094;52.130;5.598;2023-09-19T00:28:28;14.88;;;5.30;;
23716;SDS011;22094;52.130;5.598;2023-09-19T00:30:54;13.95;;;5.00;;
23716;SDS011;22094;52.130;5.598;2023-09-19T00:33:21;9.98;;;4.88;;
23716;SDS011;22094;52.130;5.598;2023-09-19T00:35:50;15.73;;;5.35;;
23716;SDS011;22094;52.130;5.598;2023-09-19T00:38:18;11.55;;;4.70;;
23716;SDS011;22094;52.130;5.598;2023-09-19T00:40:48;12.85;;;4.90;;
23716;SDS011;22094;52.130;5.598;2023-09-19T00:43:15;13.48;;;4.80;;
23716;SDS011;22094;52.130;5.598;2023-09-19T00:45:42;17.90;;;4.65;;
23716;SDS011;22094;52.130;5.598;2023-09-19T00:48:10;14.05;;;4.93;;
23716;SDS011;22094;52.130;5.598;2023-09-19T00:50:37;13.93;;;4.80;;
23716;SDS011;22094;52.130;5.598;2023-09-19T00:53:04;13.18;;;4.85;;
23716;SDS011;22094;52.130;5.598;2023-09-19T00:55:33;12.15;;;5.15;;
23716;SDS011;22094;52.130;5.598;2023-09-19T00:58:02;16.15;;;5.13;;
23716;SDS011;22094;52.130;5.598;2023-09-19T01:00:28;13.18;;;4.72;;
23716;SDS011;22094;52.130;5.598;2023-09-19T01:02:54;14.93;;;4.95;;
23716;SDS011;22094;52.130;5.598;2023-09-19T01:05:20;18.00;;;5.18;;
23716;SDS011;22094;52.130;5.598;2023-09-19T01:07:46;12.23;;;5.03;;
23716;SDS011;22094;52.130;5.598;2023-09-19T01:10:14;15.20;;;4.95;;
23716;SDS011;22094;52.130;5.598;2023-09-19T01:32:13;12.73;;;5.90;;
23716;SDS011;22094;52.130;5.598;2023-09-19T01:37:18;16.40;;;6.00;;
23716;SDS011;22094;52.130;5.598;2023-09-19T01:39:59;18.30;;;6.10;;
23716;SDS011;22094;52.130;5.598;2023-09-19T01:42:43;17.17;;;6.35;;
23716;SDS011;22094;52.130;5.598;2023-09-19T01:48:11;15.05;;;6.10;;
23716;SDS011;22094;52.130;5.598;2023-09-19T01:51:05;18.25;;;6.22;;
23716;SDS011;22094;52.130;5.598;2023-09-19T01:56:38;16.33;;;6.38;;
23716;SDS011;22094;52.130;5.598;2023-09-19T01:59:25;16.23;;;6.07;;
23716;SDS011;22094;52.130;5.598;2023-09-19T02:02:00;18.27;;;6.78;;
23716;SDS011;22094;52.130;5.598;2023-09-19T02:04:27;17.50;;;6.28;;
23716;SDS011;22094;52.130;5.598;2023-09-19T02:06:53;17.40;;;6.07;;
23716;SDS011;22094;52.130;5.598;2023-09-19T02:09:19;15.00;;;6.10;;
23716;SDS011;22094;52.130;5.598;2023-09-19T02:11:44;22.05;;;7.10;;
23716;SDS011;22094;52.130;5.598;2023-09-19T02:14:11;22.63;;;6.20;;
23716;SDS011;22094;52.130;5.598;2023-09-19T02:16:37;19.27;;;5.38;;
23716;SDS011;22094;52.130;5.598;2023-09-19T02:19:02;24.20;;;5.80;;
23716;SDS011;22094;52.130;5.598;2023-09-19T02:21:30;18.77;;;6.28;;
23716;SDS011;22094;52.130;5.598;2023-09-19T02:23:56;20.13;;;5.45;;
23716;SDS011;22094;52.130;5.598;2023-09-19T02:26:23;17.23;;;4.95;;
23716;SDS011;22094;52.130;5.598;2023-09-19T02:28:48;19.35;;;4.60;;
23716;SDS011;22094;52.130;5.598;2023-09-19T02:31:14;23.38;;;5.10;;
23716;SDS011;22094;52.130;5.598;2023-09-19T02:33:41;24.23;;;5.53;;
23716;SDS011;22094;52.130;5.598;2023-09-19T02:36:07;17.55;;;5.15;;
23716;SDS011;22094;52.130;5.598;2023-09-19T02:38:33;21.65;;;4.68;;
23716;SDS011;22094;52.130;5.598;2023-09-19T02:40:59;17.08;;;5.15;;
23716;SDS011;22094;52.130;5.598;2023-09-19T02:43:24;20.10;;;4.60;;
23716;SDS011;22094;52.130;5.598;2023-09-19T02:45:50;19.80;;;4.93;;
23716;SDS011;22094;52.130;5.598;2023-09-19T02:48:18;18.58;;;5.03;;
23716;SDS011;22094;52.130;5.598;2023-09-19T02:50:44;15.98;;;4.30;;
23716;SDS011;22094;52.130;5.598;2023-09-19T02:53:10;26.83;;;4.50;;
23716;SDS011;22094;52.130;5.598;2023-09-19T02:55:37;23.00;;;4.25;;
23716;SDS011;22094;52.130;5.598;2023-09-19T02:58:05;16.55;;;4.40;;
23716;SDS011;22094;52.130;5.598;2023-09-19T03:00:39;11.05;;;3.42;;
23716;SDS011;22094;52.130;5.598;2023-09-19T03:03:07;18.15;;;4.40;;
23716;SDS011;22094;52.130;5.598;2023-09-19T03:05:33;17.60;;;4.20;;
23716;SDS011;22094;52.130;5.598;2023-09-19T03:07:59;17.30;;;3.80;;
23716;SDS011;22094;52.130;5.598;2023-09-19T03:10:26;14.80;;;4.00;;
23716;SDS011;22094;52.130;5.598;2023-09-19T03:12:53;17.10;;;3.58;;
23716;SDS011;22094;52.130;5.598;2023-09-19T03:15:18;19.02;;;4.07;;
23716;SDS011;22094;52.130;5.598;2023-09-19T03:17:44;18.10;;;3.85;;
23716;SDS011;22094;52.130;5.598;2023-09-19T03:20:11;13.48;;;3.40;;
23716;SDS011;22094;52.130;5.598;2023-09-19T03:22:39;13.73;;;4.03;;
23716;SDS011;22094;52.130;5.598;2023-09-19T03:25:05;19.63;;;3.80;;
23716;SDS011;22094;52.130;5.598;2023-09-19T03:27:35;15.50;;;3.58;;
23716;SDS011;22094;52.130;5.598;2023-09-19T03:30:01;14.23;;;3.78;;
23716;SDS011;22094;52.130;5.598;2023-09-19T03:32:31;20.17;;;4.35;;
23716;SDS011;22094;52.130;5.598;2023-09-19T03:34:57;13.07;;;3.88;;
23716;SDS011;22094;52.130;5.598;2023-09-19T03:37:22;17.90;;;3.92;;
23716;SDS011;22094;52.130;5.598;2023-09-19T03:39:48;16.60;;;3.97;;
23716;SDS011;22094;52.130;5.598;2023-09-19T03:42:13;17.35;;;3.60;;
23716;SDS011;22094;52.130;5.598;2023-09-19T03:44:39;17.05;;;3.78;;
23716;SDS011;22094;52.130;5.598;2023-09-19T03:47:04;14.25;;;3.88;;
23716;SDS011;22094;52.130;5.598;2023-09-19T03:49:31;17.60;;;4.03;;
23716;SDS011;22094;52.130;5.598;2023-09-19T03:51:57;21.05;;;3.55;;
23716;SDS011;22094;52.130;5.598;2023-09-19T03:54:23;15.02;;;3.70;;
23716;SDS011;22094;52.130;5.598;2023-09-19T03:56:48;17.83;;;3.95;;
23716;SDS011;22094;52.130;5.598;2023-09-19T03:59:15;17.38;;;3.50;;
23716;SDS011;22094;52.130;5.598;2023-09-19T04:01:41;15.82;;;3.45;;
23716;SDS011;22094;52.130;5.598;2023-09-19T04:04:07;17.75;;;4.22;;
23716;SDS011;22094;52.130;5.598;2023-09-19T04:06:33;14.40;;;3.88;;
23716;SDS011;22094;52.130;5.598;2023-09-19T04:09:03;14.35;;;3.38;;
23716;SDS011;22094;52.130;5.598;2023-09-19T04:11:31;17.77;;;3.63;;
23716;SDS011;22094;52.130;5.598;2023-09-19T04:13:58;14.25;;;3.65;;
23716;SDS011;22094;52.130;5.598;2023-09-19T04:16:24;15.20;;;3.90;;
23716;SDS011;22094;52.130;5.598;2023-09-19T04:18:49;14.02;;;3.70;;
23716;SDS011;22094;52.130;5.598;2023-09-19T04:21:15;17.45;;;3.95;;
23716;SDS011;22094;52.130;5.598;2023-09-19T04:23:41;14.73;;;3.55;;
23716;SDS011;22094;52.130;5.598;2023-09-19T04:26:07;14.45;;;3.70;;
23716;SDS011;22094;52.130;5.598;2023-09-19T04:28:33;14.20;;;3.13;;
23716;SDS011;22094;52.130;5.598;2023-09-19T04:30:59;17.88;;;3.80;;
23716;SDS011;22094;52.130;5.598;2023-09-19T04:33:25;13.52;;;3.90;;
23716;SDS011;22094;52.130;5.598;2023-09-19T04:35:52;16.45;;;4.07;;
23716;SDS011;22094;52.130;5.598;2023-09-19T04:38:18;14.07;;;3.75;;
23716;SDS011;22094;52.130;5.598;2023-09-19T04:40:44;19.08;;;3.90;;
23716;SDS011;22094;52.130;5.598;2023-09-19T04:43:10;13.90;;;3.58;;
23716;SDS011;22094;52.130;5.598;2023-09-19T04:45:36;10.63;;;3.10;;
23716;SDS011;22094;52.130;5.598;2023-09-19T04:48:04;10.38;;;3.35;;
23716;SDS011;22094;52.130;5.598;2023-09-19T04:50:31;12.98;;;3.92;;
23716;SDS011;22094;52.130;5.598;2023-09-19T04:52:59;16.00;;;3.53;;
23716;SDS011;22094;52.130;5.598;2023-09-19T04:55:26;17.98;;;3.78;;
23716;SDS011;22094;52.130;5.598;2023-09-19T04:57:51;15.18;;;3.17;;
23716;SDS011;22094;52.130;5.598;2023-09-19T05:00:18;13.23;;;3.35;;
23716;SDS011;22094;52.130;5.598;2023-09-19T05:02:48;17.27;;;4.03;;
23716;SDS011;22094;52.130;5.598;2023-09-19T05:05:18;16.45;;;3.38;;
23716;SDS011;22094;52.130;5.598;2023-09-19T05:07:47;8.02;;;2.80;;
23716;SDS011;22094;52.130;5.598;2023-09-19T05:10:13;13.68;;;3.72;;
23716;SDS011;22094;52.130;5.598;2023-09-19T05:12:39;13.48;;;3.28;;
23716;SDS011;22094;52.130;5.598;2023-09-19T05:15:05;12.73;;;3.65;;
23716;SDS011;22094;52.130;5.598;2023-09-19T05:17:32;15.27;;;3.83;;
23716;SDS011;22094;52.130;5.598;2023-09-19T05:20:01;15.07;;;3.60;;
23716;SDS011;22094;52.130;5.598;2023-09-19T05:22:41;14.38;;;3.35;;
23716;SDS011;22094;52.130;5.598;2023-09-19T05:25:08;9.80;;;3.17;;
23716;SDS011;22094;52.130;5.598;2023-09-19T05:27:34;16.02;;;3.55;;
23716;SDS011;22094;52.130;5.598;2023-09-19T05:30:00;11.18;;;3.10;;
23716;SDS011;22094;52.130;5.598;2023-09-19T05:32:26;14.73;;;3.42;;
23716;SDS011;22094;52.130;5.598;2023-09-19T05:34:51;20.73;;;4.10;;
23716;SDS011;22094;52.130;5.598;2023-09-19T05:37:18;16.98;;;4.13;;
23716;SDS011;22094;52.130;5.598;2023-09-19T05:39:44;12.52;;;3.22;;
23716;SDS011;22094;52.130;5.598;2023-09-19T05:42:10;15.05;;;3.78;;
23716;SDS011;22094;52.130;5.598;2023-09-19T05:44:35;13.18;;;3.55;;
23716;SDS011;22094;52.130;5.598;2023-09-19T05:47:02;11.95;;;3.63;;
23716;SDS011;22094;52.130;5.598;2023-09-19T05:49:28;15.50;;;3.75;;
23716;SDS011;22094;52.130;5.598;2023-09-19T05:51:53;11.90;;;3.10;;
23716;SDS011;22094;52.130;5.598;2023-09-19T05:54:21;13.48;;;3.40;;
23716;SDS011;22094;52.130;5.598;2023-09-19T05:56:47;15.48;;;3.75;;
23716;SDS011;22094;52.130;5.598;2023-09-19T05:59:17;17.55;;;3.90;;
23716;SDS011;22094;52.130;5.598;2023-09-19T06:01:43;11.15;;;3.38;;
23716;SDS011;22094;52.130;5.598;2023-09-19T06:04:08;16.08;;;3.75;;
23716;SDS011;22094;52.130;5.598;2023-09-19T06:06:34;11.60;;;3.10;;
23716;SDS011;22094;52.130;5.598;2023-09-19T06:09:04;15.13;;;3.60;;
23716;SDS011;22094;52.130;5.598;2023-09-19T06:11:31;12.68;;;3.35;;
23716;SDS011;22094;52.130;5.598;2023-09-19T06:13:59;13.60;;;3.20;;
23716;SDS011;22094;52.130;5.598;2023-09-19T06:16:27;10.98;;;3.17;;
23716;SDS011;22094;52.130;5.598;2023-09-19T06:18:53;9.95;;;2.67;;
23716;SDS011;22094;52.130;5.598;2023-09-19T06:21:21;14.27;;;3.30;;
23716;SDS011;22094;52.130;5.598;2023-09-19T06:23:47;17.40;;;3.83;;
23716;SDS011;22094;52.130;5.598;2023-09-19T06:26:13;13.68;;;3.75;;
23716;SDS011;22094;52.130;5.598;2023-09-19T06:28:47;12.93;;;3.63;;
23716;SDS011;22094;52.130;5.598;2023-09-19T06:31:13;13.15;;;3.10;;
23716;SDS011;22094;52.130;5.598;2023-09-19T06:33:39;11.75;;;3.28;;
23716;SDS011;22094;52.130;5.598;2023-09-19T06:36:07;15.07;;;3.58;;
23716;SDS011;22094;52.130;5.598;2023-09-19T06:38:33;18.52;;;3.53;;
23716;SDS011;22094;52.130;5.598;2023-09-19T06:41:02;12.75;;;3.38;;
23716;SDS011;22094;52.130;5.598;2023-09-19T06:43:33;13.15;;;3.42;;
23716;SDS011;22094;52.130;5.598;2023-09-19T06:46:02;12.80;;;3.53;;
23716;SDS011;22094;52.130;5.598;2023-09-19T06:48:31;11.30;;;2.90;;
23716;SDS011;22094;52.130;5.598;2023-09-19T06:51:01;18.77;;;4.00;;
23716;SDS011;22094;52.130;5.598;2023-09-19T06:53:30;11.95;;;3.72;;
23716;SDS011;22094;52.130;5.598;2023-09-19T06:55:57;13.68;;;3.35;;
23716;SDS011;22094;52.130;5.598;2023-09-19T06:58:22;12.27;;;3.70;;
23716;SDS011;22094;52.130;5.598;2023-09-19T07:00:48;13.55;;;3.58;;
23716;SDS011;22094;52.130;5.598;2023-09-19T07:03:15;14.30;;;3.45;;
23716;SDS011;22094;52.130;5.598;2023-09-19T07:05:45;13.20;;;3.28;;
23716;SDS011;22094;52.130;5.598;2023-09-19T07:08:13;14.52;;;3.30;;
23716;SDS011;22094;52.130;5.598;2023-09-19T07:10:39;13.38;;;3.63;;
23716;SDS011;22094;52.130;5.598;2023-09-19T07:13:06;14.77;;;3.70;;
23716;SDS011;22094;52.130;5.598;2023-09-19T07:15:36;16.75;;;4.13;;
23716;SDS011;22094;52.130;5.598;2023-09-19T07:18:05;13.25;;;3.30;;
23716;SDS011;22094;52.130;5.598;2023-09-19T07:20:31;16.65;;;4.15;;
23716;SDS011;22094;52.130;5.598;2023-09-19T07:23:00;13.05;;;3.38;;
23716;SDS011;22094;52.130;5.598;2023-09-19T07:25:26;13.80;;;3.42;;
23716;SDS011;22094;52.130;5.598;2023-09-19T07:27:54;14.00;;;4.15;;
23716;SDS011;22094;52.130;5.598;2023-09-19T07:30:20;12.35;;;3.50;;
23716;SDS011;22094;52.130;5.598;2023-09-19T07:32:47;16.83;;;3.85;;
23716;SDS011;22094;52.130;5.598;2023-09-19T07:35:13;10.73;;;3.05;;
23716;SDS011;22094;52.130;5.598;2023-09-19T07:37:40;9.75;;;3.33;;
23716;SDS011;22094;52.130;5.598;2023-09-19T07:40:05;12.07;;;3.40;;
23716;SDS011;22094;52.130;5.598;2023-09-19T07:42:34;11.43;;;3.58;;
23716;SDS011;22094;52.130;5.598;2023-09-19T07:45:01;16.48;;;3.75;;
23716;SDS011;22094;52.130;5.598;2023-09-19T07:47:28;12.13;;;3.08;;
23716;SDS011;22094;52.130;5.598;2023-09-19T07:49:55;11.85;;;3.33;;
23716;SDS011;22094;52.130;5.598;2023-09-19T07:52:20;10.30;;;3.20;;
23716;SDS011;22094;52.130;5.598;2023-09-19T07:54:49;14.15;;;3.65;;
23716;SDS011;22094;52.130;5.598;2023-09-19T07:57:14;16.83;;;3.70;;
23716;SDS011;22094;52.130;5.598;2023-09-19T07:59:41;20.27;;;3.83;;
23716;SDS011;22094;52.130;5.598;2023-09-19T08:02:07;13.55;;;3.13;;
23716;SDS011;22094;52.130;5.598;2023-09-19T08:04:40;14.27;;;3.55;;
23716;SDS011;22094;52.130;5.598;2023-09-19T08:07:06;17.88;;;3.53;;
23716;SDS011;22094;52.130;5.598;2023-09-19T08:09:33;11.65;;;3.30;;
23716;SDS011;22094;52.130;5.598;2023-09-19T08:12:00;12.38;;;3.70;;
23716;SDS011;22094;52.130;5.598;2023-09-19T08:14:28;15.55;;;3.80;;
23716;SDS011;22094;52.130;5.598;2023-09-19T08:16:57;12.77;;;3.30;;
23716;SDS011;22094;52.130;5.598;2023-09-19T08:19:24;14.32;;;3.80;;
23716;SDS011;22094;52.130;5.598;2023-09-19T08:21:53;13.20;;;3.17;;
23716;SDS011;22094;52.130;5.598;2023-09-19T08:24:23;13.75;;;3.30;;
23716;SDS011;22094;52.130;5.598;2023-09-19T08:26:49;16.60;;;3.13;;
23716;SDS011;22094;52.130;5.598;2023-09-19T08:29:16;13.50;;;3.47;;
23716;SDS011;22094;52.130;5.598;2023-09-19T08:31:42;18.88;;;3.85;;
23716;SDS011;22094;52.130;5.598;2023-09-19T08:34:08;12.00;;;3.60;;
23716;SDS011;22094;52.130;5.598;2023-09-19T08:36:34;15.30;;;3.88;;
23716;SDS011;22094;52.130;5.598;2023-09-19T08:39:00;15.98;;;3.63;;
23716;SDS011;22094;52.130;5.598;2023-09-19T08:41:25;11.93;;;3.58;;
23716;SDS011;22094;52.130;5.598;2023-09-19T08:43:51;14.43;;;3.55;;
23716;SDS011;22094;52.130;5.598;2023-09-19T08:46:18;11.70;;;3.70;;
23716;SDS011;22094;52.130;5.598;2023-09-19T08:48:46;16.50;;;3.38;;
23716;SDS011;22094;52.130;5.598;2023-09-19T08:54:21;11.90;;;3.25;;
23716;SDS011;22094;52.130;5.598;2023-09-19T08:56:51;16.90;;;3.80;;
23716;SDS011;22094;52.130;5.598;2023-09-19T08:59:22;14.00;;;3.50;;
23716;SDS011;22094;52.130;5.598;2023-09-19T09:01:49;14.15;;;3.85;;
23716;SDS011;22094;52.130;5.598;2023-09-19T09:04:18;12.00;;;3.63;;
23716;SDS011;22094;52.130;5.598;2023-09-19T09:06:45;11.95;;;3.10;;
23716;SDS011;22094;52.130;5.598;2023-09-19T09:09:15;10.45;;;2.92;;
23716;SDS011;22094;52.130;5.598;2023-09-19T09:11:42;11.55;;;3.30;;
23716;SDS011;22094;52.130;5.598;2023-09-19T09:14:08;11.65;;;3.45;;
23716;SDS011;22094;52.130;5.598;2023-09-19T09:16:33;14.65;;;3.33;;
23716;SDS011;22094;52.130;5.598;2023-09-19T09:18:59;15.10;;;3.75;;
23716;SDS011;22094;52.130;5.598;2023-09-19T09:21:25;12.50;;;3.53;;
23716;SDS011;22094;52.130;5.598;2023-09-19T09:23:51;10.50;;;2.90;;
23716;SDS011;22094;52.130;5.598;2023-09-19T09:27:04;9.93;;;2.65;;
23716;SDS011;22094;52.130;5.598;2023-09-19T09:29:04;10.18;;;3.08;;
23716;SDS011;22094;52.130;5.598;2023-09-19T09:31:30;11.80;;;2.80;;
23716;SDS011;22094;52.130;5.598;2023-09-19T09:33:56;13.20;;;2.88;;
23716;SDS011;22094;52.130;5.598;2023-09-19T09:36:36;14.32;;;2.67;;
23716;SDS011;22094;52.130;5.598;2023-09-19T09:39:03;14.50;;;3.42;;
23716;SDS011;22094;52.130;5.598;2023-09-19T09:41:49;10.48;;;2.72;;
23716;SDS011;22094;52.130;5.598;2023-09-19T09:44:16;12.05;;;3.28;;
23716;SDS011;22094;52.130;5.598;2023-09-19T09:46:44;11.43;;;3.00;;
23716;SDS011;22094;52.130;5.598;2023-09-19T09:49:22;12.07;;;3.05;;
23716;SDS011;22094;52.130;5.598;2023-09-19T09:54:26;13.35;;;3.30;;
23716;SDS011;22094;52.130;5.598;2023-09-19T09:56:59;10.23;;;2.67;;
23716;SDS011;22094;52.130;5.598;2023-09-19T09:59:45;12.60;;;2.97;;
23716;SDS011;22094;52.130;5.598;2023-09-19T10:02:15;14.07;;;3.30;;
23716;SDS011;22094;52.130;5.598;2023-09-19T10:04:54;12.23;;;2.78;;
23716;SDS011;22094;52.130;5.598;2023-09-19T10:07:32;14.25;;;2.90;;
23716;SDS011;22094;52.130;5.598;2023-09-19T10:10:01;12.38;;;2.90;;
23716;SDS011;22094;52.130;5.598;2023-09-19T10:12:42;10.93;;;2.65;;
23716;SDS011;22094;52.130;5.598;2023-09-19T10:15:13;10.75;;;3.03;;
23716;SDS011;22094;52.130;5.598;2023-09-19T10:17:42;11.85;;;2.42;;
23716;SDS011;22094;52.130;5.598;2023-09-19T10:20:09;8.23;;;2.47;;
23716;SDS011;22094;52.130;5.598;2023-09-19T10:23:03;13.13;;;2.80;;
23716;SDS011;22094;52.130;5.598;2023-09-19T10:25:34;11.25;;;3.03;;
23716;SDS011;22094;52.130;5.598;2023-09-19T10:28:02;11.95;;;2.97;;
23716;SDS011;22094;52.130;5.598;2023-09-19T10:30:35;11.73;;;2.58;;
23716;SDS011;22094;52.130;5.598;2023-09-19T10:33:10;9.52;;;3.28;;
23716;SDS011;22094;52.130;5.598;2023-09-19T10:35:41;15.02;;;2.85;;
23716;SDS011;22094;52.130;5.598;2023-09-19T10:38:17;11.05;;;2.75;;
23716;SDS011;22094;52.130;5.598;2023-09-19T10:40:50;9.27;;;2.83;;
23716;SDS011;22094;52.130;5.598;2023-09-19T10:43:19;14.85;;;2.60;;
23716;SDS011;22094;52.130;5.598;2023-09-19T10:45:48;10.15;;;2.47;;
23716;SDS011;22094;52.130;5.598;2023-09-19T10:48:17;12.00;;;2.83;;
23716;SDS011;22094;52.130;5.598;2023-09-19T10:53:24;8.50;;;2.92;;
23716;SDS011;22094;52.130;5.598;2023-09-19T10:55:53;12.50;;;2.95;;
23716;SDS011;22094;52.130;5.598;2023-09-19T10:58:26;11.70;;;3.28;;
23716;SDS011;22094;52.130;5.598;2023-09-19T11:00:54;10.38;;;2.70;;
23716;SDS011;22094;52.130;5.598;2023-09-19T11:03:21;10.27;;;2.90;;
23716;SDS011;22094;52.130;5.598;2023-09-19T11:08:53;13.07;;;2.75;;
23716;SDS011;22094;52.130;5.598;2023-09-19T11:14:28;12.85;;;3.35;;
23716;SDS011;22094;52.130;5.598;2023-09-19T11:30:31;9.48;;;2.40;;
23716;SDS011;22094;52.130;5.598;2023-09-19T11:46:24;9.82;;;2.28;;
23716;SDS011;22094;52.130;5.598;2023-09-19T11:48:50;6.15;;;2.03;;
23716;SDS011;22094;52.130;5.598;2023-09-19T11:51:17;9.00;;;2.05;;
23716;SDS011;22094;52.130;5.598;2023-09-19T11:53:49;7.38;;;2.08;;
23716;SDS011;22094;52.130;5.598;2023-09-19T11:56:16;7.82;;;2.13;;
23716;SDS011;22094;52.130;5.598;2023-09-19T11:58:43;6.15;;;2.10;;
23716;SDS011;22094;52.130;5.598;2023-09-19T12:01:13;7.70;;;2.33;;
23716;SDS011;22094;52.130;5.598;2023-09-19T12:03:46;8.85;;;1.80;;
23716;SDS011;22094;52.130;5.598;2023-09-19T12:06:15;5.72;;;2.00;;
23716;SDS011;22094;52.130;5.598;2023-09-19T12:08:42;8.32;;;1.90;;
23716;SDS011;22094;52.130;5.598;2023-09-19T12:11:15;7.78;;;2.08;;
23716;SDS011;22094;52.130;5.598;2023-09-19T12:13:45;6.63;;;2.00;;
23716;SDS011;22094;52.130;5.598;2023-09-19T12:16:17;6.35;;;2.10;;
23716;SDS011;22094;52.130;5.598;2023-09-19T12:18:47;7.55;;;2.10;;
23716;SDS011;22094;52.130;5.598;2023-09-19T12:23:57;8.32;;;1.98;;
23716;SDS011;22094;52.130;5.598;2023-09-19T12:29:15;6.95;;;1.70;;
23716;SDS011;22094;52.130;5.598;2023-09-19T12:31:48;5.28;;;1.60;;
23716;SDS011;22094;52.130;5.598;2023-09-19T12:34:22;5.65;;;1.70;;
23716;SDS011;22094;52.130;5.598;2023-09-19T12:36:48;6.82;;;1.67;;
23716;SDS011;22094;52.130;5.598;2023-09-19T12:39:23;5.88;;;1.63;;
23716;SDS011;22094;52.130;5.598;2023-09-19T12:41:50;4.43;;;1.55;;
23716;SDS011;22094;52.130;5.598;2023-09-19T12:44:18;7.07;;;1.90;;
23716;SDS011;22094;52.130;5.598;2023-09-19T12:46:44;7.60;;;1.63;;
23716;SDS011;22094;52.130;5.598;2023-09-19T12:49:19;5.75;;;1.70;;
23716;SDS011;22094;52.130;5.598;2023-09-19T12:51:46;7.10;;;1.80;;
23716;SDS011;22094;52.130;5.598;2023-09-19T12:54:12;4.57;;;1.38;;
23716;SDS011;22094;52.130;5.598;2023-09-19T12:56:45;6.38;;;1.45;;
23716;SDS011;22094;52.130;5.598;2023-09-19T12:59:14;7.18;;;1.83;;
23716;SDS011;22094;52.130;5.598;2023-09-19T13:01:40;2.92;;;1.42;;
23716;SDS011;22094;52.130;5.598;2023-09-19T13:04:19;5.35;;;1.80;;
23716;SDS011;22094;52.130;5.598;2023-09-19T13:06:53;5.07;;;1.70;;
23716;SDS011;22094;52.130;5.598;2023-09-19T13:09:20;5.90;;;1.38;;
23716;SDS011;22094;52.130;5.598;2023-09-19T13:11:47;9.13;;;1.95;;
23716;SDS011;22094;52.130;5.598;2023-09-19T13:22:05;4.80;;;1.75;;
23716;SDS011;22094;52.130;5.598;2023-09-19T13:24:50;6.13;;;1.75;;
23716;SDS011;22094;52.130;5.598;2023-09-19T13:27:16;5.03;;;1.60;;
23716;SDS011;22094;52.130;5.598;2023-09-19T13:29:42;4.55;;;1.45;;
23716;SDS011;22094;52.130;5.598;2023-09-19T13:32:07;9.23;;;1.98;;
23716;SDS011;22094;52.130;5.598;2023-09-19T13:34:36;4.22;;;1.48;;
23716;SDS011;22094;52.130;5.598;2023-09-19T13:37:02;6.28;;;1.55;;
23716;SDS011;22094;52.130;5.598;2023-09-19T13:39:29;5.90;;;1.45;;
23716;SDS011;22094;52.130;5.598;2023-09-19T13:41:55;6.18;;;1.98;;
23716;SDS011;22094;52.130;5.598;2023-09-19T13:44:21;7.00;;;1.42;;
23716;SDS011;22094;52.130;5.598;2023-09-19T13:46:46;4.82;;;1.73;;
23716;SDS011;22094;52.130;5.598;2023-09-19T13:49:12;6.28;;;1.45;;
23716;SDS011;22094;52.130;5.598;2023-09-19T13:51:37;5.63;;;1.85;;
23716;SDS011;22094;52.130;5.598;2023-09-19T13:54:03;4.60;;;1.60;;
23716;SDS011;22094;52.130;5.598;2023-09-19T13:56:29;6.93;;;1.35;;
23716;SDS011;22094;52.130;5.598;2023-09-19T13:58:56;8.45;;;1.67;;
23716;SDS011;22094;52.130;5.598;2023-09-19T14:01:22;4.88;;;1.20;;
23716;SDS011;22094;52.130;5.598;2023-09-19T14:03:47;5.82;;;1.42;;
23716;SDS011;22094;52.130;5.598;2023-09-19T14:06:15;6.00;;;1.60;;
23716;SDS011;22094;52.130;5.598;2023-09-19T14:08:41;3.10;;;1.25;;
23716;SDS011;22094;52.130;5.598;2023-09-19T14:11:09;6.10;;;1.52;;
23716;SDS011;22094;52.130;5.598;2023-09-19T14:13:35;4.45;;;1.17;;
23716;SDS011;22094;52.130;5.598;2023-09-19T14:16:04;4.47;;;1.50;;
23716;SDS011;22094;52.130;5.598;2023-09-19T14:18:31;7.13;;;1.45;;
23716;SDS011;22094;52.130;5.598;2023-09-19T14:20:57;5.30;;;1.50;;
23716;SDS011;22094;52.130;5.598;2023-09-19T14:23:22;5.20;;;1.60;;
23716;SDS011;22094;52.130;5.598;2023-09-19T14:25:48;4.68;;;1.40;;
23716;SDS011;22094;52.130;5.598;2023-09-19T14:28:18;3.60;;;1.50;;
23716;SDS011;22094;52.130;5.598;2023-09-19T14:30:44;6.30;;;2.00;;
23716;SDS011;22094;52.130;5.598;2023-09-19T14:33:11;6.38;;;1.70;;
23716;SDS011;22094;52.130;5.598;2023-09-19T14:35:37;5.63;;;1.67;;
23716;SDS011;22094;52.130;5.598;2023-09-19T14:38:03;7.63;;;1.65;;
23716;SDS011;22094;52.130;5.598;2023-09-19T14:40:29;8.45;;;1.75;;
23716;SDS011;22094;52.130;5.598;2023-09-19T14:42:56;6.82;;;1.58;;
23716;SDS011;22094;52.130;5.598;2023-09-19T14:45:21;6.35;;;1.45;;
23716;SDS011;22094;52.130;5.598;2023-09-19T14:47:47;8.18;;;1.90;;
23716;SDS011;22094;52.130;5.598;2023-09-19T14:50:13;3.22;;;1.65;;
23716;SDS011;22094;52.130;5.598;2023-09-19T14:52:40;6.47;;;1.67;;
23716;SDS011;22094;52.130;5.598;2023-09-19T14:55:06;5.97;;;1.90;;
23716;SDS011;22094;52.130;5.598;2023-09-19T14:57:36;11.73;;;2.30;;
23716;SDS011;22094;52.130;5.598;2023-09-19T15:00:05;6.28;;;1.67;;
23716;SDS011;22094;52.130;5.598;2023-09-19T15:02:36;5.35;;;1.80;;
23716;SDS011;22094;52.130;5.598;2023-09-19T15:05:04;6.82;;;1.85;;
23716;SDS011;22094;52.130;5.598;2023-09-19T15:07:31;9.20;;;2.25;;
23716;SDS011;22094;52.130;5.598;2023-09-19T15:09:57;5.45;;;1.88;;
23716;SDS011;22094;52.130;5.598;2023-09-19T15:12:23;4.22;;;1.75;;
23716;SDS011;22094;52.130;5.598;2023-09-19T15:14:49;6.40;;;2.00;;
23716;SDS011;22094;52.130;5.598;2023-09-19T15:17:15;4.32;;;1.58;;
23716;SDS011;22094;52.130;5.598;2023-09-19T15:19:41;8.63;;;1.92;;
23716;SDS011;22094;52.130;5.598;2023-09-19T15:22:07;7.05;;;2.00;;
23716;SDS011;22094;52.130;5.598;2023-09-19T15:24:32;7.28;;;1.77;;
23716;SDS011;22094;52.130;5.598;2023-09-19T15:26:58;9.00;;;2.33;;
23716;SDS011;22094;52.130;5.598;2023-09-19T15:29:24;5.53;;;2.15;;
23716;SDS011;22094;52.130;5.598;2023-09-19T15:31:49;6.28;;;1.73;;
23716;SDS011;22094;52.130;5.598;2023-09-19T15:34:15;5.65;;;2.10;;
23716;SDS011;22094;52.130;5.598;2023-09-19T15:36:41;8.77;;;2.22;;
23716;SDS011;22094;52.130;5.598;2023-09-19T15:39:07;7.47;;;2.10;;
23716;SDS011;22094;52.130;5.598;2023-09-19T15:41:39;6.95;;;2.00;;
23716;SDS011;22094;52.130;5.598;2023-09-19T15:44:12;7.95;;;2.60;;
23716;SDS011;22094;52.130;5.598;2023-09-19T15:46:41;7.80;;;2.20;;
23716;SDS011;22094;52.130;5.598;2023-09-19T15:49:07;7.45;;;2.28;;
23716;SDS011;22094;52.130;5.598;2023-09-19T15:51:34;4.45;;;2.20;;
23716;SDS011;22094;52.130;5.598;2023-09-19T15:54:07;6.80;;;2.22;;
23716;SDS011;22094;52.130;5.598;2023-09-19T15:56:33;6.15;;;2.05;;
23716;SDS011;22094;52.130;5.598;2023-09-19T15:59:02;6.47;;;2.30;;
23716;SDS011;22094;52.130;5.598;2023-09-19T16:01:28;6.05;;;2.60;;
23716;SDS011;22094;52.130;5.598;2023-09-19T16:03:54;6.18;;;1.95;;
23716;SDS011;22094;52.130;5.598;2023-09-19T16:06:31;4.18;;;2.20;;